Time;durP1;ratioP1;P1;durP2;ratioP2;P2;SDS_P1;SDS_P2;PMS_P1;PMS_P2;Temp;Humidity;BMP_temperature;BMP_pressure;BME280_temperature;BME280_humidity;BME280_pressure;Samples;Min_cycle;Max_cycle;Signal;HPM_P1;HPM_P2
2023/04/18 00:00:31;;;;;;;;;;;;;;;7.41;76.48;102588.93;108102;1260;67108;-79
2023/04/18 00:03:14;;;;;;;;;;;;;;;7.39;76.68;102588.13;108171;1257;72906;-78
2023/04/18 00:05:42;;;;;;;;;;;;;;;7.38;76.72;102588.54;108072;1257;125309;-78
2023/04/18 00:08:09;;;;;;;;;;;;;;;7.36;76.85;102587.55;108101;1257;60588;-78
2023/04/18 00:10:36;;;;;;;;;;;;;;;7.36;76.87;102589.48;108050;1258;124538;-78
2023/04/18 00:13:03;;;;;;;;;;;;;;;7.37;77.03;102589.00;108094;1257;67042;-78
2023/04/18 00:15:31;;;;;;;;;;;;;;;7.37;77.09;102592.02;107442;1257;228243;-78
2023/04/18 00:17:59;;;;;;;;;;;;;;;7.38;77.17;102594.33;107295;1258;125377;-78
2023/04/18 00:20:26;;;;;;;;;;;;;;;7.39;77.12;102594.05;107772;1257;60306;-78
2023/04/18 00:22:53;;;;;;;;;;;;;;;7.39;77.17;102591.42;107955;1257;124730;-81
2023/04/18 00:25:20;;;;;;;;;;;;;;;7.38;77.39;102593.63;107731;1257;65907;-78
2023/04/18 00:27:47;;;;;;;;;;;;;;;7.39;77.39;102591.21;107802;1256;124888;-78
2023/04/18 00:30:14;;;;;;;;;;;;;;;7.39;77.41;102594.01;108321;1256;59359;-78
2023/04/18 00:32:41;;;;;;;;;;;;;;;7.38;77.54;102595.58;108119;1264;60665;-77
2023/04/18 00:35:08;;;;;;;;;;;;;;;7.40;77.52;102594.78;107666;1257;124579;-78
2023/04/18 00:37:36;;;;;;;;;;;;;;;7.40;77.56;102590.98;107896;1259;65757;-78
2023/04/18 00:40:04;;;;;;;;;;;;;;;7.39;77.59;102593.51;107760;1257;125271;-78
2023/04/18 00:42:31;;;;;;;;;;;;;;;7.40;77.77;102591.66;107766;1260;59952;-78
2023/04/18 00:44:58;;;;;;;;;;;;;;;7.42;77.76;102594.02;107572;1256;61262;-78
2023/04/18 00:47:25;;;;;;;;;;;;;;;7.45;77.84;102599.10;107436;1262;124703;-77
2023/04/18 00:49:52;;;;;;;;;;;;;;;7.45;77.87;102598.94;107905;1261;67581;-78
2023/04/18 00:52:19;;;;;;;;;;;;;;;7.47;77.94;102597.35;107641;1256;125403;-78
2023/04/18 00:54:46;;;;;;;;;;;;;;;7.51;77.97;102603.73;107720;1257;59714;-78
2023/04/18 00:57:13;;;;;;;;;;;;;;;7.53;77.94;102599.52;107575;1262;59987;-78
2023/04/18 00:59:40;;;;;;;;;;;;;;;7.56;78.00;102599.74;107548;1262;125194;-78
2023/04/18 01:02:06;;;;;;;;;;;;;;;7.58;77.96;102599.82;108693;1257;65461;-79
2023/04/18 01:04:33;;;;;;;;;;;;;;;7.56;78.10;102600.79;108622;1257;125392;-79
2023/04/18 01:07:01;;;;;;;;;;;;;;;7.58;78.02;102605.77;108743;1257;59570;-79
2023/04/18 01:09:28;;;;;;;;;;;;;;;7.58;78.01;102601.56;108768;1256;59667;-78
2023/04/18 01:11:55;;;;;;;;;;;;;;;7.59;78.05;102607.42;108661;1257;124404;-78
2023/04/18 01:14:22;;;;;;;;;;;;;;;7.58;78.03;102605.95;108374;1260;65745;-79
2023/04/18 01:16:49;;;;;;;;;;;;;;;7.59;78.10;102602.02;108689;1256;124805;-79
2023/04/18 01:19:17;;;;;;;;;;;;;;;7.61;78.12;102599.14;108759;1258;59437;-78
2023/04/18 01:21:44;;;;;;;;;;;;;;;7.61;78.16;102598.99;108632;1256;125168;-79
2023/04/18 01:24:14;;;;;;;;;;;;;;;7.62;78.24;102595.76;108851;1260;73548;-78
2023/04/18 01:26:42;;;;;;;;;;;;;;;7.64;78.23;102597.10;108789;1256;65731;-78
2023/04/18 01:29:09;;;;;;;;;;;;;;;7.65;78.21;102596.60;108659;1256;125236;-78
2023/04/18 01:31:36;;;;;;;;;;;;;;;7.63;78.22;102597.52;108671;1258;59849;-78
2023/04/18 01:34:03;;;;;;;;;;;;;;;7.60;78.34;102592.98;108590;1257;125368;-78
2023/04/18 01:36:30;;;;;;;;;;;;;;;7.59;78.40;102590.15;108897;1257;73736;-79
2023/04/18 01:38:58;;;;;;;;;;;;;;;7.59;78.47;102594.67;108765;1258;64754;-79
2023/04/18 01:41:26;;;;;;;;;;;;;;;7.58;78.45;102591.08;108606;1258;125399;-78
2023/04/18 01:43:52;;;;;;;;;;;;;;;7.58;78.58;102587.75;108648;1257;59080;-77
2023/04/18 01:46:19;;;;;;;;;;;;;;;7.57;78.64;102596.11;108722;1259;125351;-77
2023/04/18 01:48:46;;;;;;;;;;;;;;;7.56;78.71;102591.30;108740;1256;75264;-78
2023/04/18 01:51:13;;;;;;;;;;;;;;;7.55;78.69;102590.20;108856;1256;65915;-78
2023/04/18 01:53:40;;;;;;;;;;;;;;;7.53;78.92;102589.88;108773;1257;125484;-78
2023/04/18 01:56:08;;;;;;;;;;;;;;;7.54;79.02;102587.14;108787;1260;59284;-78
2023/04/18 01:58:36;;;;;;;;;;;;;;;7.54;78.93;102585.63;108712;1260;125724;-78
2023/04/18 02:01:03;;;;;;;;;;;;;;;7.55;79.01;102589.16;108821;1260;73407;-79
2023/04/18 02:03:30;;;;;;;;;;;;;;;7.54;79.12;102583.87;108896;1256;67889;-78
2023/04/18 02:05:57;;;;;;;;;;;;;;;7.54;79.08;102583.48;108759;1260;125016;-78
2023/04/18 02:08:23;;;;;;;;;;;;;;;7.55;79.15;102581.30;108735;1263;59017;-78
2023/04/18 02:10:50;;;;;;;;;;;;;;;7.57;79.23;102580.02;108815;1257;125393;-79
2023/04/18 02:13:17;;;;;;;;;;;;;;;7.59;79.27;102577.88;108769;1262;75226;-78
2023/04/18 02:15:44;;;;;;;;;;;;;;;7.61;79.21;102579.23;108654;1257;125593;-78
2023/04/18 02:18:11;;;;;;;;;;;;;;;7.61;79.28;102575.77;108742;1257;71471;-78
2023/04/18 02:20:38;;;;;;;;;;;;;;;7.62;79.26;102573.73;108824;1262;59458;-77
2023/04/18 02:23:05;;;;;;;;;;;;;;;7.64;79.21;102576.98;108757;1258;127176;-78
2023/04/18 02:25:32;;;;;;;;;;;;;;;7.65;79.28;102575.11;108846;1260;74713;-78
2023/04/18 02:27:59;;;;;;;;;;;;;;;7.67;79.35;102575.06;108628;1262;125998;-78
2023/04/18 02:30:26;;;;;;;;;;;;;;;7.69;79.31;102572.11;108790;1258;72705;-78
2023/04/18 02:32:55;;;;;;;;;;;;;;;7.69;79.35;102573.16;108773;1260;59834;-77
2023/04/18 02:35:22;;;;;;;;;;;;;;;7.69;79.30;102573.82;108700;1258;124740;-77
2023/04/18 02:37:49;;;;;;;;;;;;;;;7.69;79.41;102571.88;108634;1258;73316;-77
2023/04/18 02:40:16;;;;;;;;;;;;;;;7.72;79.50;102572.27;108573;1262;124782;-77
2023/04/18 02:42:43;;;;;;;;;;;;;;;7.74;79.39;102572.61;108658;1262;73378;-77
2023/04/18 02:45:10;;;;;;;;;;;;;;;7.77;79.44;102573.85;108593;1262;59591;-77
2023/04/18 02:47:38;;;;;;;;;;;;;;;7.77;79.37;102574.36;108538;1258;125190;-77
2023/04/18 02:50:05;;;;;;;;;;;;;;;7.76;79.40;102571.48;108611;1262;74732;-77
2023/04/18 02:52:32;;;;;;;;;;;;;;;7.73;79.44;102570.27;108711;1258;124705;-77
2023/04/18 02:54:59;;;;;;;;;;;;;;;7.72;79.53;102572.29;108811;1261;71525;-77
2023/04/18 02:57:26;;;;;;;;;;;;;;;7.73;79.52;102579.53;108788;1258;59416;-77
2023/04/18 02:59:53;;;;;;;;;;;;;;;7.73;79.62;102581.13;108767;1260;124918;-77
2023/04/18 03:02:19;;;;;;;;;;;;;;;7.71;79.64;102581.84;108878;1260;74190;-80
2023/04/18 03:04:47;;;;;;;;;;;;;;;7.72;79.72;102583.96;108006;1257;124685;-80
2023/04/18 03:07:14;;;;;;;;;;;;;;;7.73;79.68;102585.59;107684;1256;73083;-81
2023/04/18 03:09:41;;;;;;;;;;;;;;;7.71;79.79;102580.76;107515;1263;125308;-77
2023/04/18 03:12:08;;;;;;;;;;;;;;;7.69;79.78;102579.59;107664;1257;59411;-78
2023/04/18 03:14:35;;;;;;;;;;;;;;;7.69;79.88;102580.10;107752;1257;73287;-78
2023/04/18 03:17:02;;;;;;;;;;;;;;;7.69;79.93;102583.11;107681;1260;125276;-80
2023/04/18 03:19:30;;;;;;;;;;;;;;;7.69;79.97;102584.14;107953;1260;73200;-80
2023/04/18 03:21:57;;;;;;;;;;;;;;;7.71;80.06;102584.42;108052;1261;125774;-78
2023/04/18 03:24:24;;;;;;;;;;;;;;;7.74;80.11;102586.56;108168;1258;60234;-79
2023/04/18 03:26:51;;;;;;;;;;;;;;;7.73;80.13;102582.98;108146;1257;73522;-81
2023/04/18 03:29:18;;;;;;;;;;;;;;;7.73;80.15;102583.54;107716;1258;124714;-78
2023/04/18 03:31:45;;;;;;;;;;;;;;;7.75;80.11;102586.45;107715;1262;72568;-78
2023/04/18 03:34:12;;;;;;;;;;;;;;;7.77;80.16;102586.63;107698;1257;125268;-81
2023/04/18 03:36:39;;;;;;;;;;;;;;;7.78;80.10;102591.36;107845;1257;60086;-81
2023/04/18 03:39:06;;;;;;;;;;;;;;;7.78;80.15;102590.88;107678;1257;73087;-80
2023/04/18 03:41:33;;;;;;;;;;;;;;;7.78;80.16;102592.30;107844;1258;124797;-80
2023/04/18 03:43:59;;;;;;;;;;;;;;;7.77;80.15;102592.86;107578;1260;71140;-80
2023/04/18 03:46:26;;;;;;;;;;;;;;;7.75;80.24;102592.19;107242;1261;125583;-80
2023/04/18 03:48:53;;;;;;;;;;;;;;;7.71;80.33;102587.07;107455;1258;60524;-80
2023/04/18 03:51:20;;;;;;;;;;;;;;;7.67;80.42;102591.54;108830;1256;72982;-80
2023/04/18 03:53:47;;;;;;;;;;;;;;;7.68;80.55;102590.38;108797;1257;125087;-81
2023/04/18 03:56:14;;;;;;;;;;;;;;;7.71;80.62;102594.56;108921;1257;72715;-81
2023/04/18 03:58:41;;;;;;;;;;;;;;;7.72;80.67;102591.83;108695;1257;124988;-80
2023/04/18 04:01:08;;;;;;;;;;;;;;;7.71;80.57;102595.43;108761;1257;59147;-80
2023/04/18 04:03:35;;;;;;;;;;;;;;;7.74;80.72;102593.08;108683;1258;125112;-80
2023/04/18 04:06:02;;;;;;;;;;;;;;;7.83;80.94;102595.05;108853;1257;67644;-81
2023/04/18 04:08:29;;;;;;;;;;;;;;;8.01;81.21;102595.67;108858;1256;71863;-81
2023/04/18 04:10:56;;;;;;;;;;;;;;;8.37;81.67;102597.09;108759;1257;124594;-80
2023/04/18 04:13:23;;;;;;;;;;;;;;;8.80;81.51;102594.89;108912;1257;59357;-79
2023/04/18 04:15:50;;;;;;;;;;;;;;;9.21;81.18;102596.20;108734;1257;124660;-82
2023/04/18 04:18:17;;;;;;;;;;;;;;;9.61;80.70;102602.92;108745;1257;65870;-80
2023/04/18 04:20:44;;;;;;;;;;;;;;;10.01;80.35;102601.23;108852;1257;71425;-80
2023/04/18 04:23:11;;;;;;;;;;;;;;;10.41;79.57;102602.95;108633;1257;126482;-80
2023/04/18 04:25:38;;;;;;;;;;;;;;;10.87;79.49;102597.86;108897;1257;59914;-80
2023/04/18 04:28:05;;;;;;;;;;;;;;;11.41;78.98;102598.38;108766;1257;125536;-78
2023/04/18 04:30:32;;;;;;;;;;;;;;;11.93;78.24;102597.17;108804;1258;66575;-82
2023/04/18 04:33:00;;;;;;;;;;;;;;;12.44;77.44;102595.91;108689;1256;71784;-79
2023/04/18 04:35:27;;;;;;;;;;;;;;;12.85;76.41;102588.79;108491;1257;124875;-80
2023/04/18 04:37:54;;;;;;;;;;;;;;;13.17;75.59;102591.63;108313;1257;59804;-82
2023/04/18 04:40:21;;;;;;;;;;;;;;;13.41;74.57;102596.92;108038;1257;124415;-81
2023/04/18 04:42:52;;;;;;;;;;;;;;;13.60;73.93;102594.92;107938;1256;67036;-81
2023/04/18 04:45:19;;;;;;;;;;;;;;;14.04;73.90;102590.70;107857;1256;70961;-81
2023/04/18 04:47:46;;;;;;;;;;;;;;;14.44;73.06;102592.29;107566;1262;124868;-81
2023/04/18 04:50:14;;;;;;;;;;;;;;;14.65;72.09;102596.13;107776;1256;61266;-81
2023/04/18 04:52:41;;;;;;;;;;;;;;;14.80;71.22;102597.91;107768;1257;124826;-81
2023/04/18 04:55:08;;;;;;;;;;;;;;;14.87;70.49;102598.52;107812;1257;65830;-80
2023/04/18 04:57:35;;;;;;;;;;;;;;;15.01;70.23;102600.79;107633;1257;124394;-81
2023/04/18 05:00:04;;;;;;;;;;;;;;;15.33;70.19;102598.58;107545;1257;59586;-83
2023/04/18 05:02:31;;;;;;;;;;;;;;;15.67;69.21;102604.34;107680;1257;61417;-81
2023/04/18 05:04:58;;;;;;;;;;;;;;;15.84;68.74;102602.65;107697;1258;124990;-82
2023/04/18 05:07:25;;;;;;;;;;;;;;;16.13;67.95;102604.62;107705;1263;67596;-83
2023/04/18 05:09:52;;;;;;;;;;;;;;;16.07;66.16;102598.25;107528;1258;125074;-82
2023/04/18 05:12:19;;;;;;;;;;;;;;;16.02;66.82;102601.44;107641;1258;60655;-81
2023/04/18 05:14:46;;;;;;;;;;;;;;;16.18;66.24;102601.08;107832;1257;61132;-78
2023/04/18 05:17:13;;;;;;;;;;;;;;;15.88;65.49;102600.98;107765;1258;124761;-81
2023/04/18 05:19:42;;;;;;;;;;;;;;;15.29;64.47;102598.97;107675;1258;65900;-80
2023/04/18 05:22:09;;;;;;;;;;;;;;;14.53;64.20;102605.02;107622;1257;125632;-80
2023/04/18 05:24:36;;;;;;;;;;;;;;;13.86;64.83;102601.98;107591;1257;60162;-79
2023/04/18 05:27:06;;;;;;;;;;;;;;;13.46;65.45;102606.31;107670;1257;61267;-79
2023/04/18 05:29:33;;;;;;;;;;;;;;;12.98;65.68;102605.77;107503;1257;124805;-79
2023/04/18 05:32:00;;;;;;;;;;;;;;;12.55;66.21;102609.25;107713;1258;65922;-79
2023/04/18 05:34:30;;;;;;;;;;;;;;;12.29;66.99;102611.58;107154;1264;125343;-80
2023/04/18 05:36:57;;;;;;;;;;;;;;;11.98;66.95;102610.77;107375;1264;59902;-79
2023/04/18 05:39:24;;;;;;;;;;;;;;;11.67;67.51;102610.09;107561;1262;60365;-79
2023/04/18 05:41:51;;;;;;;;;;;;;;;11.41;68.11;102609.11;107247;1263;125213;-83
2023/04/18 05:44:19;;;;;;;;;;;;;;;11.18;68.32;102607.58;107212;1267;68060;-83
2023/04/18 05:46:50;;;;;;;;;;;;;;;10.92;68.68;102609.02;107128;1262;124421;-82
2023/04/18 05:49:17;;;;;;;;;;;;;;;10.76;69.13;102606.74;107318;1263;61286;-82
2023/04/18 05:51:45;;;;;;;;;;;;;;;10.65;69.55;102606.35;107642;1262;124764;-82
2023/04/18 05:54:12;;;;;;;;;;;;;;;10.57;69.97;102607.82;107667;1263;73389;-82
2023/04/18 05:56:39;;;;;;;;;;;;;;;10.57;70.23;102610.31;107511;1263;65169;-83
2023/04/18 05:59:05;;;;;;;;;;;;;;;10.64;70.75;102609.95;107455;1264;125590;-82
2023/04/18 06:01:33;;;;;;;;;;;;;;;10.78;70.99;102617.77;107377;1262;61139;-82
2023/04/18 06:04:00;;;;;;;;;;;;;;;10.88;70.88;102613.20;107235;1263;125859;-83
2023/04/18 06:06:27;;;;;;;;;;;;;;;11.03;70.96;102617.20;107544;1256;75385;-83
2023/04/18 06:08:54;;;;;;;;;;;;;;;11.13;70.94;102614.16;107659;1257;67157;-82
2023/04/18 06:11:21;;;;;;;;;;;;;;;11.23;70.69;102614.33;107470;1257;126422;-83
2023/04/18 06:13:48;;;;;;;;;;;;;;;11.28;70.62;102615.86;107247;1257;60970;-83
2023/04/18 06:16:15;;;;;;;;;;;;;;;11.36;70.60;102617.48;107426;1256;124541;-82
2023/04/18 06:18:43;;;;;;;;;;;;;;;11.40;70.48;102620.35;107541;1256;73892;-82
2023/04/18 06:21:12;;;;;;;;;;;;;;;11.43;70.30;102622.41;107488;1257;66816;-82
2023/04/18 06:23:39;;;;;;;;;;;;;;;11.41;70.35;102618.81;107725;1258;124840;-82
2023/04/18 06:26:06;;;;;;;;;;;;;;;11.46;70.40;102617.98;107962;1257;59662;-81
2023/04/18 06:28:33;;;;;;;;;;;;;;;11.47;70.23;102618.58;107750;1257;124980;-80
2023/04/18 06:31:01;;;;;;;;;;;;;;;11.49;70.31;102626.23;107835;1257;75187;-80
2023/04/18 06:33:28;;;;;;;;;;;;;;;11.50;70.30;102623.29;107432;1260;66438;-81
2023/04/18 06:35:56;;;;;;;;;;;;;;;11.47;70.05;102628.79;107370;1257;124857;-81
2023/04/18 06:38:23;;;;;;;;;;;;;;;11.40;70.11;102625.41;107481;1256;59964;-81
2023/04/18 06:40:50;;;;;;;;;;;;;;;11.46;70.41;102638.02;107536;1256;124649;-80
2023/04/18 06:43:17;;;;;;;;;;;;;;;11.56;70.35;102629.05;107636;1257;74785;-81
2023/04/18 06:45:44;;;;;;;;;;;;;;;11.74;70.57;102630.48;107416;1257;66413;-80
2023/04/18 06:48:11;;;;;;;;;;;;;;;11.87;70.22;102631.16;107306;1257;72374;-81
2023/04/18 06:50:38;;;;;;;;;;;;;;;11.97;70.09;102636.40;107523;1257;60244;-82
2023/04/18 06:53:05;;;;;;;;;;;;;;;12.01;69.81;102634.71;107608;1257;124720;-81
2023/04/18 06:55:33;;;;;;;;;;;;;;;12.10;69.91;102632.67;107891;1262;73241;-83
2023/04/18 06:58:02;;;;;;;;;;;;;;;12.17;69.60;102631.08;107714;1259;124932;-82
2023/04/18 07:00:29;;;;;;;;;;;;;;;12.14;69.22;102636.21;107745;1258;71729;-81
2023/04/18 07:02:56;;;;;;;;;;;;;;;12.04;69.17;102636.61;107677;1256;60487;-81
2023/04/18 07:05:23;;;;;;;;;;;;;;;11.98;69.07;102638.92;107410;1256;124804;-82
2023/04/18 07:07:50;;;;;;;;;;;;;;;11.81;69.08;102631.05;107633;1256;73328;-81
2023/04/18 07:10:17;;;;;;;;;;;;;;;11.65;69.16;102630.71;107381;1257;124667;-81
2023/04/18 07:12:44;;;;;;;;;;;;;;;11.56;69.42;102637.33;107528;1257;73270;-81
2023/04/18 07:15:11;;;;;;;;;;;;;;;11.53;69.51;102645.05;107939;1259;60144;-81
2023/04/18 07:17:38;;;;;;;;;;;;;;;11.40;69.47;102644.59;107610;1257;124390;-81
2023/04/18 07:20:05;;;;;;;;;;;;;;;11.33;69.54;102647.70;107430;1256;73395;-82
2023/04/18 07:22:32;;;;;;;;;;;;;;;11.27;69.72;102652.17;107406;1257;125369;-81
2023/04/18 07:24:59;;;;;;;;;;;;;;;11.17;69.65;102656.90;107834;1256;72820;-81
2023/04/18 07:27:26;;;;;;;;;;;;;;;11.06;69.93;102654.59;107518;1256;61237;-82
2023/04/18 07:29:53;;;;;;;;;;;;;;;11.05;70.16;102659.64;107634;1256;124968;-82
2023/04/18 07:32:20;;;;;;;;;;;;;;;10.99;70.10;102662.29;107707;1259;74198;-81
2023/04/18 07:34:47;;;;;;;;;;;;;;;11.07;70.62;102658.15;107720;1257;125181;-81
2023/04/18 07:37:15;;;;;;;;;;;;;;;11.16;70.50;102660.52;107959;1256;72954;-82
2023/04/18 07:39:42;;;;;;;;;;;;;;;11.16;70.55;102658.46;107539;1256;124749;-81
2023/04/18 07:42:10;;;;;;;;;;;;;;;11.20;70.60;102660.42;107373;1256;60148;-81
2023/04/18 07:44:37;;;;;;;;;;;;;;;11.26;70.63;102657.40;107284;1256;74716;-81
2023/04/18 07:47:05;;;;;;;;;;;;;;;11.29;70.62;102657.01;107161;1256;126063;-81
2023/04/18 07:49:32;;;;;;;;;;;;;;;11.32;70.67;102658.92;107311;1257;72232;-83
2023/04/18 07:51:59;;;;;;;;;;;;;;;11.41;70.75;102655.34;107278;1256;125930;-83
2023/04/18 07:54:26;;;;;;;;;;;;;;;11.52;70.72;102656.42;107546;1256;61842;-83
2023/04/18 07:56:53;;;;;;;;;;;;;;;11.64;70.66;102651.12;107703;1256;74696;-83
2023/04/18 07:59:19;;;;;;;;;;;;;;;11.71;70.45;102654.41;107458;1262;125585;-83
2023/04/18 08:01:47;;;;;;;;;;;;;;;11.72;70.13;102669.09;107346;1257;73736;-82
2023/04/18 08:04:14;;;;;;;;;;;;;;;11.60;69.93;102667.58;107507;1257;125351;-82
2023/04/18 08:06:42;;;;;;;;;;;;;;;11.60;70.17;102663.36;107690;1258;61454;-81
2023/04/18 08:09:10;;;;;;;;;;;;;;;11.64;69.98;102668.67;107565;1256;73582;-81
2023/04/18 08:11:40;;;;;;;;;;;;;;;11.58;69.95;102665.73;107750;1256;124262;-82
2023/04/18 08:14:07;;;;;;;;;;;;;;;11.64;70.22;102667.95;107708;1257;71178;-81
2023/04/18 08:16:34;;;;;;;;;;;;;;;11.64;69.99;102673.63;107546;1256;124961;-81
2023/04/18 08:19:31;;;;;;;;;;;;;;;11.51;69.76;102672.03;107532;1257;60884;-81
2023/04/18 08:22:08;;;;;;;;;;;;;;;11.44;70.10;102666.59;107422;1257;125980;-81
2023/04/18 08:24:38;;;;;;;;;;;;;;;11.53;70.17;102674.09;107512;1256;66411;-82
2023/04/18 08:27:07;;;;;;;;;;;;;;;11.53;70.00;102671.77;107733;1256;73247;-81
2023/04/18 08:29:34;;;;;;;;;;;;;;;11.59;70.16;102675.42;107617;1257;125336;-81
2023/04/18 08:32:01;;;;;;;;;;;;;;;11.61;69.93;102683.32;107694;1256;59993;-81
2023/04/18 08:34:28;;;;;;;;;;;;;;;11.56;69.65;102684.61;108044;1256;124746;-82
2023/04/18 08:36:55;;;;;;;;;;;;;;;11.54;69.77;102681.34;107260;1262;67070;-82
2023/04/18 08:39:22;;;;;;;;;;;;;;;11.65;70.02;102682.27;107516;1256;72692;-82
2023/04/18 08:41:52;;;;;;;;;;;;;;;11.77;69.91;102682.54;107605;1257;125345;-82
2023/04/18 08:44:20;;;;;;;;;;;;;;;11.84;69.78;102679.38;107659;1256;61068;-81
2023/04/18 08:46:48;;;;;;;;;;;;;;;11.83;69.69;102678.46;107363;1256;124605;-82
2023/04/18 08:49:16;;;;;;;;;;;;;;;11.81;69.48;102685.20;107550;1256;67522;-81
2023/04/18 08:51:43;;;;;;;;;;;;;;;11.80;69.47;102685.84;107528;1256;125554;-81
2023/04/18 08:54:11;;;;;;;;;;;;;;;11.86;69.64;102688.96;107464;1259;59637;-81
2023/04/18 08:56:39;;;;;;;;;;;;;;;12.06;69.62;102691.42;107460;1256;61277;-82
2023/04/18 08:59:06;;;;;;;;;;;;;;;12.14;69.17;102691.45;107350;1256;125622;-82
2023/04/18 09:01:55;;;;;;;;;;;;;;;12.23;69.23;102693.33;107561;1256;65742;-81
2023/04/18 09:04:33;;;;;;;;;;;;;;;12.43;68.98;102686.00;107342;1257;124974;-82
2023/04/18 09:07:00;;;;;;;;;;;;;;;12.53;68.93;102682.09;107737;1256;59545;-82
2023/04/18 09:09:27;;;;;;;;;;;;;;;12.56;68.59;102683.27;107861;1257;61012;-82
2023/04/18 09:12:07;;;;;;;;;;;;;;;12.59;68.54;102682.22;107360;1256;124615;-82
2023/04/18 09:14:41;;;;;;;;;;;;;;;12.66;68.42;102678.64;107529;1256;65878;-81
2023/04/18 09:17:09;;;;;;;;;;;;;;;12.69;68.36;102680.34;107335;1256;124604;-82
2023/04/18 09:19:47;;;;;;;;;;;;;;;12.70;67.94;102685.19;107601;1256;59937;-82
2023/04/18 09:22:15;;;;;;;;;;;;;;;12.60;67.75;102675.23;107578;1257;124293;-81
2023/04/18 09:24:54;;;;;;;;;;;;;;;12.65;67.99;102674.19;107450;1256;73341;-81
2023/04/18 09:27:24;;;;;;;;;;;;;;;12.75;67.79;102678.88;107386;1256;65826;-81
2023/04/18 09:29:51;;;;;;;;;;;;;;;12.78;67.80;102682.75;107424;1256;124140;-81
2023/04/18 09:32:19;;;;;;;;;;;;;;;12.78;67.44;102685.00;107351;1256;61198;-81
2023/04/18 09:34:46;;;;;;;;;;;;;;;12.64;67.38;102680.31;107413;1256;124473;-80
2023/04/18 09:37:13;;;;;;;;;;;;;;;12.60;67.55;102681.73;107564;1256;73697;-81
2023/04/18 09:39:41;;;;;;;;;;;;;;;12.62;67.69;102679.17;107288;1259;124346;-81
2023/04/18 09:42:09;;;;;;;;;;;;;;;12.62;67.45;102681.83;107360;1257;72644;-82
2023/04/18 09:44:37;;;;;;;;;;;;;;;12.48;67.05;102681.83;107384;1262;61279;-82
2023/04/18 09:47:26;;;;;;;;;;;;;;;12.34;67.19;102676.79;107595;1256;124389;-82
2023/04/18 09:49:54;;;;;;;;;;;;;;;12.40;67.76;102674.58;107910;1256;75187;-83
2023/04/18 09:52:23;;;;;;;;;;;;;;;12.51;67.61;102675.64;107539;1260;124918;-82
2023/04/18 09:55:00;;;;;;;;;;;;;;;12.50;67.43;102677.02;107573;1256;72750;-83
2023/04/18 09:57:28;;;;;;;;;;;;;;;12.46;67.20;102678.55;107410;1256;61169;-83
2023/04/18 10:00:12;;;;;;;;;;;;;;;12.41;67.39;102674.47;108655;1256;124613;-82
2023/04/18 10:02:59;;;;;;;;;;;;;;;12.30;67.35;102676.22;107935;1256;75121;-82
2023/04/18 10:05:27;;;;;;;;;;;;;;;12.13;67.51;102667.29;107397;1256;124182;-82
2023/04/18 10:07:54;;;;;;;;;;;;;;;12.04;67.68;102669.48;107595;1256;72737;-83
2023/04/18 10:10:21;;;;;;;;;;;;;;;11.96;67.91;102664.70;107827;1257;125168;-83
2023/04/18 10:12:49;;;;;;;;;;;;;;;11.95;67.81;102663.20;107631;1257;61312;-83
2023/04/18 10:15:16;;;;;;;;;;;;;;;11.93;68.21;102668.39;107379;1257;74746;-82
2023/04/18 10:17:44;;;;;;;;;;;;;;;11.96;68.45;102664.48;107434;1256;125108;-83
2023/04/18 10:20:16;;;;;;;;;;;;;;;12.06;68.56;102658.66;107569;1256;71409;-83
2023/04/18 10:22:43;;;;;;;;;;;;;;;12.09;68.47;102666.03;107721;1257;124698;-82
2023/04/18 10:25:10;;;;;;;;;;;;;;;12.10;68.51;102664.32;107540;1257;59630;-83
2023/04/18 10:27:56;;;;;;;;;;;;;;;12.13;68.45;102663.61;107596;1257;74397;-82
2023/04/18 10:30:41;;;;;;;;;;;;;;;12.21;68.50;102664.14;107602;1256;67356;-82
2023/04/18 10:33:21;;;;;;;;;;;;;;;12.14;68.18;102664.67;107703;1256;71401;-82
2023/04/18 10:36:07;;;;;;;;;;;;;;;12.14;68.48;102662.40;107762;1260;125203;-82
2023/04/18 10:38:34;;;;;;;;;;;;;;;12.14;68.44;102665.06;107630;1256;61053;-79
2023/04/18 10:41:23;;;;;;;;;;;;;;;12.06;68.18;102658.89;107483;1256;125526;-80
2023/04/18 10:46:35;;;;;;;;;;;;;;;12.16;68.39;102662.48;107667;1259;125809;-79
2023/04/18 10:49:18;;;;;;;;;;;;;;;12.11;68.43;102655.07;107534;1256;59532;-79
2023/04/18 10:51:46;;;;;;;;;;;;;;;12.24;68.68;102649.73;107646;1256;124815;-80
2023/04/18 10:54:16;;;;;;;;;;;;;;;12.38;68.42;102655.64;107808;1257;75166;-79
2023/04/18 10:56:52;;;;;;;;;;;;;;;12.33;68.14;102651.71;107985;1257;67106;-80
2023/04/18 10:59:21;;;;;;;;;;;;;;;12.21;68.17;102650.45;107616;1256;124621;-79
2023/04/18 11:01:48;;;;;;;;;;;;;;;12.02;68.14;102651.98;107459;1256;59712;-79
2023/04/18 11:04:15;;;;;;;;;;;;;;;11.79;68.20;102643.75;107578;1257;124874;-80
2023/04/18 11:06:53;;;;;;;;;;;;;;;11.68;68.74;102645.12;107716;1262;75255;-79
2023/04/18 11:09:21;;;;;;;;;;;;;;;11.67;69.04;102641.08;107797;1256;64497;-79
2023/04/18 11:12:04;;;;;;;;;;;;;;;11.67;69.24;102637.52;107568;1256;124864;-79
2023/04/18 11:14:45;;;;;;;;;;;;;;;11.63;69.37;102639.95;107722;1256;59929;-79
2023/04/18 11:17:15;;;;;;;;;;;;;;;11.60;69.34;102635.05;107824;1256;125102;-79
2023/04/18 11:19:42;;;;;;;;;;;;;;;11.59;69.47;102634.84;107550;1256;74595;-79
2023/04/18 11:22:09;;;;;;;;;;;;;;;11.68;69.81;102637.05;107397;1256;125426;-79
2023/04/18 11:24:40;;;;;;;;;;;;;;;11.80;69.92;102633.73;107760;1256;70774;-79
2023/04/18 11:27:15;;;;;;;;;;;;;;;11.81;69.50;102634.52;107934;1256;59565;-79
2023/04/18 11:29:42;;;;;;;;;;;;;;;11.79;69.37;102637.76;107843;1256;124734;-79
2023/04/18 11:32:09;;;;;;;;;;;;;;;11.68;69.17;102632.98;107566;1256;73335;-80
2023/04/18 11:34:36;;;;;;;;;;;;;;;11.65;69.49;102634.23;107421;1256;125223;-79
2023/04/18 11:37:06;;;;;;;;;;;;;;;11.60;69.44;102628.39;107771;1256;72513;-79
2023/04/18 11:39:35;;;;;;;;;;;;;;;11.62;69.64;102624.61;107846;1256;62205;-79
2023/04/18 11:42:02;;;;;;;;;;;;;;;11.65;69.72;102630.76;107534;1259;124648;-79
2023/04/18 11:44:29;;;;;;;;;;;;;;;11.61;69.64;102621.41;107541;1258;74961;-82
2023/04/18 11:46:57;;;;;;;;;;;;;;;11.57;69.67;102626.27;107461;1259;125289;-82
2023/04/18 11:49:24;;;;;;;;;;;;;;;11.54;69.86;102622.81;107632;1256;73536;-79
2023/04/18 11:51:52;;;;;;;;;;;;;;;11.61;69.97;102618.40;107665;1257;125614;-80
2023/04/18 11:54:34;;;;;;;;;;;;;;;11.61;69.95;102625.98;107740;1256;59845;-79
2023/04/18 11:57:01;;;;;;;;;;;;;;;11.67;70.15;102621.37;107489;1257;73417;-79
2023/04/18 11:59:28;;;;;;;;;;;;;;;11.74;70.02;102619.56;107374;1257;125306;-79
2023/04/18 12:02:01;;;;;;;;;;;;;;;11.84;70.31;102616.92;107411;1256;73160;-79
2023/04/18 12:04:28;;;;;;;;;;;;;;;12.00;70.13;102616.52;107311;1256;125305;-80
2023/04/18 12:06:56;;;;;;;;;;;;;;;11.96;69.68;102616.45;108024;1256;60141;-79
2023/04/18 12:09:23;;;;;;;;;;;;;;;11.85;69.62;102612.90;107984;1257;73329;-79
2023/04/18 12:11:58;;;;;;;;;;;;;;;11.85;69.79;102615.72;107451;1263;124581;-79
2023/04/18 12:14:25;;;;;;;;;;;;;;;11.78;69.92;102612.42;107662;1256;224084;-79
2023/04/18 12:16:52;;;;;;;;;;;;;;;11.81;69.89;102619.25;107824;1256;124918;-79
2023/04/18 12:19:19;;;;;;;;;;;;;;;11.68;69.69;102615.41;107842;1257;59673;-79
2023/04/18 12:21:59;;;;;;;;;;;;;;;11.51;69.46;102613.17;107383;1256;124901;-79
2023/04/18 12:24:27;;;;;;;;;;;;;;;11.35;69.90;102610.38;107638;1260;67157;-80
2023/04/18 12:26:56;;;;;;;;;;;;;;;11.25;70.14;102604.23;107772;1256;71383;-79
2023/04/18 12:29:23;;;;;;;;;;;;;;;11.25;70.54;102603.40;107721;1256;125712;-80
2023/04/18 12:31:50;;;;;;;;;;;;;;;11.29;70.49;102606.24;107844;1256;61228;-79
2023/04/18 12:34:17;;;;;;;;;;;;;;;11.23;70.35;102606.80;107853;1256;125655;-80